sensor_id;sensor_type;location;lat;lon;timestamp;P1;durP1;ratioP1;P2;durP2;ratioP2
20375;SDS011;10347;51.828;6.466;2022-09-09T00:00:37;1.42;;;0.60;;
20375;SDS011;10347;51.828;6.466;2022-09-09T00:03:23;0.70;;;0.70;;
20375;SDS011;10347;51.828;6.466;2022-09-09T00:11:17;0.65;;;0.65;;
20375;SDS011;10347;51.828;6.466;2022-09-09T00:13:54;0.55;;;0.52;;
20375;SDS011;10347;51.828;6.466;2022-09-09T00:16:25;0.75;;;0.70;;
20375;SDS011;10347;51.828;6.466;2022-09-09T00:19:05;0.80;;;0.70;;
20375;SDS011;10347;51.828;6.466;2022-09-09T00:32:55;1.65;;;0.70;;
20375;SDS011;10347;51.828;6.466;2022-09-09T00:35:32;1.00;;;0.75;;
20375;SDS011;10347;51.828;6.466;2022-09-09T00:38:03;0.50;;;0.50;;
20375;SDS011;10347;51.828;6.466;2022-09-09T00:40:53;0.45;;;0.45;;
20375;SDS011;10347;51.828;6.466;2022-09-09T00:43:29;1.75;;;0.57;;
20375;SDS011;10347;51.828;6.466;2022-09-09T00:48:22;0.65;;;0.65;;
20375;SDS011;10347;51.828;6.466;2022-09-09T00:51:23;0.75;;;0.70;;
20375;SDS011;10347;51.828;6.466;2022-09-09T00:56:58;0.52;;;0.50;;
20375;SDS011;10347;51.828;6.466;2022-09-09T00:59:45;0.45;;;0.45;;
20375;SDS011;10347;51.828;6.466;2022-09-09T01:02:30;0.45;;;0.40;;
20375;SDS011;10347;51.828;6.466;2022-09-09T01:05:12;0.65;;;0.50;;
20375;SDS011;10347;51.828;6.466;2022-09-09T01:07:57;0.52;;;0.52;;
20375;SDS011;10347;51.828;6.466;2022-09-09T01:10:39;0.65;;;0.50;;
20375;SDS011;10347;51.828;6.466;2022-09-09T01:13:19;0.50;;;0.50;;
20375;SDS011;10347;51.828;6.466;2022-09-09T01:15:55;0.50;;;0.50;;
20375;SDS011;10347;51.828;6.466;2022-09-09T01:18:25;0.50;;;0.50;;
20375;SDS011;10347;51.828;6.466;2022-09-09T01:28:49;1.00;;;0.60;;
20375;SDS011;10347;51.828;6.466;2022-09-09T01:31:40;1.23;;;0.60;;
20375;SDS011;10347;51.828;6.466;2022-09-09T01:34:08;0.60;;;0.60;;
20375;SDS011;10347;51.828;6.466;2022-09-09T01:36:43;0.82;;;0.73;;
20375;SDS011;10347;51.828;6.466;2022-09-09T01:39:12;0.88;;;0.68;;
20375;SDS011;10347;51.828;6.466;2022-09-09T01:41:38;0.70;;;0.70;;
20375;SDS011;10347;51.828;6.466;2022-09-09T01:44:04;0.60;;;0.60;;
20375;SDS011;10347;51.828;6.466;2022-09-09T01:46:31;0.73;;;0.73;;
20375;SDS011;10347;51.828;6.466;2022-09-09T01:48:57;0.70;;;0.70;;
20375;SDS011;10347;51.828;6.466;2022-09-09T01:51:25;1.30;;;0.85;;
20375;SDS011;10347;51.828;6.466;2022-09-09T01:53:51;0.98;;;0.98;;
20375;SDS011;10347;51.828;6.466;2022-09-09T01:56:26;0.70;;;0.70;;
20375;SDS011;10347;51.828;6.466;2022-09-09T01:59:05;0.70;;;0.70;;
20375;SDS011;10347;51.828;6.466;2022-09-09T02:04:25;1.65;;;0.70;;
20375;SDS011;10347;51.828;6.466;2022-09-09T02:06:56;0.70;;;0.70;;
20375;SDS011;10347;51.828;6.466;2022-09-09T02:09:23;0.63;;;0.63;;
20375;SDS011;10347;51.828;6.466;2022-09-09T02:11:52;0.90;;;0.90;;
20375;SDS011;10347;51.828;6.466;2022-09-09T02:14:27;0.90;;;0.90;;
20375;SDS011;10347;51.828;6.466;2022-09-09T02:17:01;1.00;;;0.82;;
20375;SDS011;10347;51.828;6.466;2022-09-09T02:19:33;0.90;;;0.90;;
20375;SDS011;10347;51.828;6.466;2022-09-09T02:22:03;0.90;;;0.90;;
20375;SDS011;10347;51.828;6.466;2022-09-09T02:24:29;1.55;;;0.85;;
20375;SDS011;10347;51.828;6.466;2022-09-09T02:26:59;0.90;;;0.90;;
20375;SDS011;10347;51.828;6.466;2022-09-09T02:29:30;0.80;;;0.80;;
20375;SDS011;10347;51.828;6.466;2022-09-09T02:32:00;0.73;;;0.70;;
20375;SDS011;10347;51.828;6.466;2022-09-09T02:34:29;0.80;;;0.80;;
20375;SDS011;10347;51.828;6.466;2022-09-09T02:36:58;0.93;;;0.93;;
20375;SDS011;10347;51.828;6.466;2022-09-09T02:39:27;1.10;;;0.82;;
20375;SDS011;10347;51.828;6.466;2022-09-09T02:41:53;1.00;;;0.77;;
20375;SDS011;10347;51.828;6.466;2022-09-09T02:44:19;0.65;;;0.65;;
20375;SDS011;10347;51.828;6.466;2022-09-09T02:49:54;0.70;;;0.70;;
20375;SDS011;10347;51.828;6.466;2022-09-09T02:52:54;0.85;;;0.85;;
20375;SDS011;10347;51.828;6.466;2022-09-09T02:58:03;0.80;;;0.80;;
20375;SDS011;10347;51.828;6.466;2022-09-09T03:00:32;1.83;;;1.10;;
20375;SDS011;10347;51.828;6.466;2022-09-09T03:02:57;1.85;;;0.98;;
20375;SDS011;10347;51.828;6.466;2022-09-09T03:05:23;1.00;;;0.90;;
20375;SDS011;10347;51.828;6.466;2022-09-09T03:07:49;2.45;;;0.85;;
20375;SDS011;10347;51.828;6.466;2022-09-09T03:10:15;0.80;;;0.80;;
20375;SDS011;10347;51.828;6.466;2022-09-09T03:12:42;0.98;;;0.98;;
20375;SDS011;10347;51.828;6.466;2022-09-09T03:15:08;2.38;;;0.95;;
20375;SDS011;10347;51.828;6.466;2022-09-09T03:17:34;0.82;;;0.82;;
20375;SDS011;10347;51.828;6.466;2022-09-09T03:20:01;1.00;;;1.00;;
20375;SDS011;10347;51.828;6.466;2022-09-09T03:22:27;1.00;;;1.00;;
20375;SDS011;10347;51.828;6.466;2022-09-09T03:24:53;0.90;;;0.90;;
20375;SDS011;10347;51.828;6.466;2022-09-09T03:27:18;1.40;;;1.30;;
20375;SDS011;10347;51.828;6.466;2022-09-09T03:29:44;1.00;;;1.00;;
20375;SDS011;10347;51.828;6.466;2022-09-09T03:32:10;1.13;;;0.88;;
20375;SDS011;10347;51.828;6.466;2022-09-09T03:34:37;1.70;;;1.13;;
20375;SDS011;10347;51.828;6.466;2022-09-09T03:37:05;1.20;;;1.10;;
20375;SDS011;10347;51.828;6.466;2022-09-09T03:39:30;0.90;;;0.90;;
20375;SDS011;10347;51.828;6.466;2022-09-09T03:41:56;2.80;;;1.15;;
20375;SDS011;10347;51.828;6.466;2022-09-09T03:44:22;1.67;;;1.10;;
20375;SDS011;10347;51.828;6.466;2022-09-09T03:46:48;1.55;;;1.35;;
20375;SDS011;10347;51.828;6.466;2022-09-09T03:49:13;1.40;;;1.15;;
20375;SDS011;10347;51.828;6.466;2022-09-09T03:51:40;1.45;;;1.20;;
20375;SDS011;10347;51.828;6.466;2022-09-09T03:54:06;1.33;;;1.20;;
20375;SDS011;10347;51.828;6.466;2022-09-09T03:56:35;1.10;;;0.98;;
20375;SDS011;10347;51.828;6.466;2022-09-09T03:59:01;1.65;;;1.30;;
20375;SDS011;10347;51.828;6.466;2022-09-09T04:01:27;1.50;;;1.00;;
20375;SDS011;10347;51.828;6.466;2022-09-09T04:03:53;1.10;;;1.00;;
20375;SDS011;10347;51.828;6.466;2022-09-09T04:06:20;1.80;;;1.33;;
20375;SDS011;10347;51.828;6.466;2022-09-09T04:08:46;1.85;;;1.25;;
20375;SDS011;10347;51.828;6.466;2022-09-09T04:11:13;2.05;;;1.30;;
20375;SDS011;10347;51.828;6.466;2022-09-09T04:13:41;1.13;;;1.02;;
20375;SDS011;10347;51.828;6.466;2022-09-09T04:16:08;2.25;;;1.40;;
20375;SDS011;10347;51.828;6.466;2022-09-09T04:18:36;1.92;;;1.40;;
20375;SDS011;10347;51.828;6.466;2022-09-09T04:21:02;1.70;;;1.35;;
20375;SDS011;10347;51.828;6.466;2022-09-09T04:23:29;2.88;;;1.23;;
20375;SDS011;10347;51.828;6.466;2022-09-09T04:25:55;1.30;;;1.30;;
20375;SDS011;10347;51.828;6.466;2022-09-09T04:28:23;1.50;;;1.30;;
20375;SDS011;10347;51.828;6.466;2022-09-09T04:30:50;2.10;;;1.48;;
20375;SDS011;10347;51.828;6.466;2022-09-09T04:33:17;1.45;;;1.30;;
20375;SDS011;10347;51.828;6.466;2022-09-09T04:35:44;1.42;;;1.25;;
20375;SDS011;10347;51.828;6.466;2022-09-09T04:38:11;1.15;;;1.05;;
20375;SDS011;10347;51.828;6.466;2022-09-09T04:40:37;2.83;;;1.65;;
20375;SDS011;10347;51.828;6.466;2022-09-09T04:43:07;2.95;;;1.67;;
20375;SDS011;10347;51.828;6.466;2022-09-09T04:45:33;1.27;;;1.17;;
20375;SDS011;10347;51.828;6.466;2022-09-09T04:47:59;1.52;;;1.42;;
20375;SDS011;10347;51.828;6.466;2022-09-09T04:50:25;2.30;;;1.30;;
20375;SDS011;10347;51.828;6.466;2022-09-09T04:52:50;1.70;;;1.25;;
20375;SDS011;10347;51.828;6.466;2022-09-09T04:55:16;1.98;;;1.30;;
20375;SDS011;10347;51.828;6.466;2022-09-09T04:57:42;3.53;;;1.70;;
20375;SDS011;10347;51.828;6.466;2022-09-09T05:00:08;5.68;;;1.40;;
20375;SDS011;10347;51.828;6.466;2022-09-09T05:02:38;2.38;;;1.50;;
20375;SDS011;10347;51.828;6.466;2022-09-09T05:05:04;3.03;;;1.58;;
20375;SDS011;10347;51.828;6.466;2022-09-09T05:07:31;3.00;;;1.30;;
20375;SDS011;10347;51.828;6.466;2022-09-09T05:09:56;1.70;;;1.30;;
20375;SDS011;10347;51.828;6.466;2022-09-09T05:12:22;2.15;;;1.58;;
20375;SDS011;10347;51.828;6.466;2022-09-09T05:14:50;4.20;;;1.60;;
20375;SDS011;10347;51.828;6.466;2022-09-09T05:17:18;1.45;;;1.35;;
20375;SDS011;10347;51.828;6.466;2022-09-09T05:19:45;1.33;;;1.23;;
20375;SDS011;10347;51.828;6.466;2022-09-09T05:22:10;3.58;;;1.40;;
20375;SDS011;10347;51.828;6.466;2022-09-09T05:24:37;2.63;;;1.58;;
20375;SDS011;10347;51.828;6.466;2022-09-09T05:27:03;1.73;;;1.08;;
20375;SDS011;10347;51.828;6.466;2022-09-09T05:29:30;2.90;;;1.30;;
20375;SDS011;10347;51.828;6.466;2022-09-09T05:31:58;4.55;;;1.50;;
20375;SDS011;10347;51.828;6.466;2022-09-09T05:34:24;3.13;;;1.52;;
20375;SDS011;10347;51.828;6.466;2022-09-09T05:36:50;2.88;;;1.52;;
20375;SDS011;10347;51.828;6.466;2022-09-09T05:39:17;2.10;;;1.20;;
20375;SDS011;10347;51.828;6.466;2022-09-09T05:41:42;3.60;;;1.50;;
20375;SDS011;10347;51.828;6.466;2022-09-09T05:44:08;2.17;;;1.20;;
20375;SDS011;10347;51.828;6.466;2022-09-09T05:46:33;2.67;;;1.20;;
20375;SDS011;10347;51.828;6.466;2022-09-09T05:48:59;3.70;;;1.42;;
20375;SDS011;10347;51.828;6.466;2022-09-09T05:51:25;1.92;;;1.40;;
20375;SDS011;10347;51.828;6.466;2022-09-09T05:53:54;1.52;;;1.42;;
20375;SDS011;10347;51.828;6.466;2022-09-09T05:56:23;2.10;;;1.50;;
20375;SDS011;10347;51.828;6.466;2022-09-09T05:58:51;4.70;;;1.67;;
20375;SDS011;10347;51.828;6.466;2022-09-09T06:01:20;5.07;;;1.20;;
20375;SDS011;10347;51.828;6.466;2022-09-09T06:03:52;2.35;;;1.23;;
20375;SDS011;10347;51.828;6.466;2022-09-09T06:06:31;2.92;;;1.33;;
20375;SDS011;10347;51.828;6.466;2022-09-09T06:09:01;2.10;;;1.42;;
20375;SDS011;10347;51.828;6.466;2022-09-09T06:11:29;1.85;;;1.23;;
20375;SDS011;10347;51.828;6.466;2022-09-09T06:13:56;1.50;;;1.02;;
20375;SDS011;10347;51.828;6.466;2022-09-09T06:16:23;3.15;;;1.50;;
20375;SDS011;10347;51.828;6.466;2022-09-09T06:18:50;2.45;;;1.10;;
20375;SDS011;10347;51.828;6.466;2022-09-09T06:21:20;3.55;;;1.20;;
20375;SDS011;10347;51.828;6.466;2022-09-09T06:23:47;1.50;;;1.20;;
20375;SDS011;10347;51.828;6.466;2022-09-09T06:26:14;3.80;;;1.50;;
20375;SDS011;10347;51.828;6.466;2022-09-09T06:28:47;3.30;;;1.40;;
20375;SDS011;10347;51.828;6.466;2022-09-09T06:31:15;3.83;;;1.52;;
20375;SDS011;10347;51.828;6.466;2022-09-09T06:33:42;1.48;;;1.15;;
20375;SDS011;10347;51.828;6.466;2022-09-09T06:38:39;1.77;;;1.23;;
20375;SDS011;10347;51.828;6.466;2022-09-09T06:41:09;4.65;;;1.50;;
20375;SDS011;10347;51.828;6.466;2022-09-09T06:43:37;1.65;;;1.10;;
20375;SDS011;10347;51.828;6.466;2022-09-09T06:46:04;2.72;;;1.23;;
20375;SDS011;10347;51.828;6.466;2022-09-09T06:48:41;3.30;;;1.38;;
20375;SDS011;10347;51.828;6.466;2022-09-09T06:51:08;5.65;;;1.50;;
20375;SDS011;10347;51.828;6.466;2022-09-09T06:53:39;4.07;;;1.50;;
20375;SDS011;10347;51.828;6.466;2022-09-09T06:58:41;3.90;;;1.38;;
20375;SDS011;10347;51.828;6.466;2022-09-09T07:01:09;2.17;;;1.33;;
20375;SDS011;10347;51.828;6.466;2022-09-09T07:03:37;3.88;;;1.38;;
20375;SDS011;10347;51.828;6.466;2022-09-09T07:06:03;5.13;;;1.63;;
20375;SDS011;10347;51.828;6.466;2022-09-09T07:08:30;3.80;;;1.38;;
20375;SDS011;10347;51.828;6.466;2022-09-09T07:11:01;3.47;;;1.48;;
20375;SDS011;10347;51.828;6.466;2022-09-09T07:13:29;5.20;;;1.80;;
20375;SDS011;10347;51.828;6.466;2022-09-09T07:16:02;3.80;;;1.50;;
20375;SDS011;10347;51.828;6.466;2022-09-09T07:18:32;5.13;;;1.60;;
20375;SDS011;10347;51.828;6.466;2022-09-09T07:20:59;2.97;;;1.48;;
20375;SDS011;10347;51.828;6.466;2022-09-09T07:23:27;3.15;;;1.40;;
20375;SDS011;10347;51.828;6.466;2022-09-09T07:25:53;4.40;;;1.40;;
20375;SDS011;10347;51.828;6.466;2022-09-09T07:28:19;8.95;;;1.73;;
20375;SDS011;10347;51.828;6.466;2022-09-09T07:30:59;2.45;;;1.30;;
20375;SDS011;10347;51.828;6.466;2022-09-09T07:33:29;5.28;;;1.70;;
20375;SDS011;10347;51.828;6.466;2022-09-09T07:36:02;3.47;;;1.50;;
20375;SDS011;10347;51.828;6.466;2022-09-09T07:38:29;4.15;;;1.90;;
20375;SDS011;10347;51.828;6.466;2022-09-09T07:41:05;4.05;;;1.70;;
20375;SDS011;10347;51.828;6.466;2022-09-09T07:43:36;5.13;;;1.80;;
20375;SDS011;10347;51.828;6.466;2022-09-09T07:46:03;8.65;;;1.80;;
20375;SDS011;10347;51.828;6.466;2022-09-09T07:48:28;6.38;;;1.48;;
20375;SDS011;10347;51.828;6.466;2022-09-09T07:51:04;8.73;;;1.65;;
20375;SDS011;10347;51.828;6.466;2022-09-09T07:53:36;6.63;;;1.92;;
20375;SDS011;10347;51.828;6.466;2022-09-09T07:56:06;7.28;;;2.00;;
20375;SDS011;10347;51.828;6.466;2022-09-09T07:58:34;6.00;;;1.77;;
20375;SDS011;10347;51.828;6.466;2022-09-09T08:01:11;5.32;;;1.90;;
20375;SDS011;10347;51.828;6.466;2022-09-09T08:03:39;6.00;;;1.70;;
20375;SDS011;10347;51.828;6.466;2022-09-09T08:06:05;5.82;;;1.63;;
20375;SDS011;10347;51.828;6.466;2022-09-09T08:08:33;4.80;;;1.95;;
20375;SDS011;10347;51.828;6.466;2022-09-09T08:11:03;11.15;;;2.20;;
20375;SDS011;10347;51.828;6.466;2022-09-09T08:13:32;6.60;;;2.08;;
20375;SDS011;10347;51.828;6.466;2022-09-09T08:16:12;6.60;;;2.03;;
20375;SDS011;10347;51.828;6.466;2022-09-09T08:18:42;5.53;;;2.00;;
20375;SDS011;10347;51.828;6.466;2022-09-09T08:23:43;3.70;;;1.50;;
20375;SDS011;10347;51.828;6.466;2022-09-09T08:28:47;6.47;;;1.60;;
20375;SDS011;10347;51.828;6.466;2022-09-09T08:31:17;3.95;;;1.40;;
20375;SDS011;10347;51.828;6.466;2022-09-09T08:33:44;4.47;;;1.58;;
20375;SDS011;10347;51.828;6.466;2022-09-09T08:36:14;3.58;;;1.50;;
20375;SDS011;10347;51.828;6.466;2022-09-09T08:38:47;5.75;;;1.80;;
20375;SDS011;10347;51.828;6.466;2022-09-09T08:43:48;5.80;;;1.58;;
20375;SDS011;10347;51.828;6.466;2022-09-09T08:46:29;6.47;;;1.77;;
20375;SDS011;10347;51.828;6.466;2022-09-09T08:49:22;2.67;;;1.33;;
20375;SDS011;10347;51.828;6.466;2022-09-09T08:52:03;3.35;;;1.40;;
20375;SDS011;10347;51.828;6.466;2022-09-09T08:54:38;4.57;;;1.58;;
20375;SDS011;10347;51.828;6.466;2022-09-09T08:57:05;3.88;;;1.90;;
20375;SDS011;10347;51.828;6.466;2022-09-09T08:59:42;2.15;;;1.40;;
20375;SDS011;10347;51.828;6.466;2022-09-09T09:02:12;6.45;;;1.73;;
20375;SDS011;10347;51.828;6.466;2022-09-09T09:10:28;3.20;;;1.30;;
20375;SDS011;10347;51.828;6.466;2022-09-09T09:13:20;5.43;;;1.70;;
20375;SDS011;10347;51.828;6.466;2022-09-09T09:16:13;3.85;;;1.30;;
20375;SDS011;10347;51.828;6.466;2022-09-09T09:18:54;3.85;;;1.25;;
20375;SDS011;10347;51.828;6.466;2022-09-09T09:21:34;3.47;;;1.48;;
20375;SDS011;10347;51.828;6.466;2022-09-09T09:24:09;4.10;;;1.60;;
20375;SDS011;10347;51.828;6.466;2022-09-09T09:26:43;5.45;;;1.60;;
20375;SDS011;10347;51.828;6.466;2022-09-09T09:29:10;3.67;;;1.30;;
20375;SDS011;10347;51.828;6.466;2022-09-09T09:31:42;4.65;;;1.30;;
20375;SDS011;10347;51.828;6.466;2022-09-09T09:34:14;4.82;;;1.60;;
20375;SDS011;10347;51.828;6.466;2022-09-09T09:36:43;4.45;;;1.40;;
20375;SDS011;10347;51.828;6.466;2022-09-09T09:39:22;4.57;;;1.20;;
20375;SDS011;10347;51.828;6.466;2022-09-09T09:41:52;4.47;;;1.80;;
20375;SDS011;10347;51.828;6.466;2022-09-09T09:44:21;3.90;;;1.30;;
20375;SDS011;10347;51.828;6.466;2022-09-09T09:46:49;5.22;;;1.70;;
20375;SDS011;10347;51.828;6.466;2022-09-09T09:49:15;9.63;;;1.80;;
20375;SDS011;10347;51.828;6.466;2022-09-09T09:51:42;7.18;;;1.55;;
20375;SDS011;10347;51.828;6.466;2022-09-09T09:56:43;3.13;;;1.30;;
20375;SDS011;10347;51.828;6.466;2022-09-09T09:59:24;3.42;;;1.23;;
20375;SDS011;10347;51.828;6.466;2022-09-09T10:02:16;6.60;;;1.52;;
20375;SDS011;10347;51.828;6.466;2022-09-09T10:04:45;2.95;;;1.23;;
20375;SDS011;10347;51.828;6.466;2022-09-09T10:07:18;4.00;;;1.38;;
20375;SDS011;10347;51.828;6.466;2022-09-09T10:09:45;2.42;;;1.15;;
20375;SDS011;10347;51.828;6.466;2022-09-09T10:15:05;3.60;;;1.40;;
20375;SDS011;10347;51.828;6.466;2022-09-09T10:17:53;5.68;;;1.40;;
20375;SDS011;10347;51.828;6.466;2022-09-09T10:31:34;4.10;;;1.58;;
20375;SDS011;10347;51.828;6.466;2022-09-09T10:34:09;7.38;;;1.55;;
20375;SDS011;10347;51.828;6.466;2022-09-09T10:36:56;4.90;;;1.48;;
20375;SDS011;10347;51.828;6.466;2022-09-09T10:44:55;3.67;;;1.23;;
20375;SDS011;10347;51.828;6.466;2022-09-09T10:55:40;3.45;;;1.40;;
20375;SDS011;10347;51.828;6.466;2022-09-09T10:58:10;3.42;;;1.20;;
20375;SDS011;10347;51.828;6.466;2022-09-09T11:00:49;4.95;;;1.50;;
20375;SDS011;10347;51.828;6.466;2022-09-09T11:03:24;4.15;;;1.20;;
20375;SDS011;10347;51.828;6.466;2022-09-09T11:05:58;5.38;;;1.17;;
20375;SDS011;10347;51.828;6.466;2022-09-09T11:08:29;2.58;;;1.33;;
20375;SDS011;10347;51.828;6.466;2022-09-09T11:15:59;6.22;;;1.20;;
20375;SDS011;10347;51.828;6.466;2022-09-09T11:18:30;5.72;;;1.50;;
20375;SDS011;10347;51.828;6.466;2022-09-09T11:21:01;4.38;;;1.40;;
20375;SDS011;10347;51.828;6.466;2022-09-09T11:23:40;4.80;;;1.40;;
20375;SDS011;10347;51.828;6.466;2022-09-09T11:26:16;2.67;;;1.30;;
20375;SDS011;10347;51.828;6.466;2022-09-09T11:42:05;4.22;;;1.48;;
20375;SDS011;10347;51.828;6.466;2022-09-09T11:44:32;2.50;;;1.20;;
20375;SDS011;10347;51.828;6.466;2022-09-09T11:46:58;1.42;;;0.95;;
20375;SDS011;10347;51.828;6.466;2022-09-09T11:51:54;6.38;;;1.63;;
20375;SDS011;10347;51.828;6.466;2022-09-09T11:54:30;3.95;;;1.45;;
20375;SDS011;10347;51.828;6.466;2022-09-09T11:56:57;2.22;;;1.10;;
20375;SDS011;10347;51.828;6.466;2022-09-09T11:59:26;2.55;;;1.40;;
20375;SDS011;10347;51.828;6.466;2022-09-09T12:05:04;4.53;;;1.10;;
20375;SDS011;10347;51.828;6.466;2022-09-09T12:07:35;4.13;;;1.10;;
20375;SDS011;10347;51.828;6.466;2022-09-09T12:10:20;4.57;;;1.17;;
20375;SDS011;10347;51.828;6.466;2022-09-09T12:12:50;1.42;;;0.80;;
20375;SDS011;10347;51.828;6.466;2022-09-09T12:15:17;2.70;;;1.17;;
20375;SDS011;10347;51.828;6.466;2022-09-09T12:17:49;3.10;;;1.10;;
20375;SDS011;10347;51.828;6.466;2022-09-09T12:28:15;3.30;;;1.40;;
20375;SDS011;10347;51.828;6.466;2022-09-09T12:31:10;1.35;;;1.08;;
20375;SDS011;10347;51.828;6.466;2022-09-09T12:33:49;1.65;;;1.00;;
20375;SDS011;10347;51.828;6.466;2022-09-09T12:36:18;2.30;;;1.08;;
20375;SDS011;10347;51.828;6.466;2022-09-09T12:38:48;2.78;;;1.10;;
20375;SDS011;10347;51.828;6.466;2022-09-09T12:41:20;2.28;;;1.08;;
20375;SDS011;10347;51.828;6.466;2022-09-09T12:43:48;2.97;;;1.50;;
20375;SDS011;10347;51.828;6.466;2022-09-09T12:46:35;2.65;;;1.23;;
20375;SDS011;10347;51.828;6.466;2022-09-09T12:51:51;3.67;;;1.20;;
20375;SDS011;10347;51.828;6.466;2022-09-09T12:54:17;3.40;;;1.20;;
20375;SDS011;10347;51.828;6.466;2022-09-09T12:56:45;2.92;;;1.30;;
20375;SDS011;10347;51.828;6.466;2022-09-09T12:59:22;3.85;;;1.30;;
20375;SDS011;10347;51.828;6.466;2022-09-09T13:01:56;2.58;;;1.35;;
20375;SDS011;10347;51.828;6.466;2022-09-09T13:04:23;3.15;;;1.48;;
20375;SDS011;10347;51.828;6.466;2022-09-09T13:06:48;3.03;;;1.00;;
20375;SDS011;10347;51.828;6.466;2022-09-09T13:09:14;2.60;;;1.20;;
20375;SDS011;10347;51.828;6.466;2022-09-09T13:11:44;1.63;;;1.10;;
20375;SDS011;10347;51.828;6.466;2022-09-09T13:14:48;2.78;;;1.00;;
20375;SDS011;10347;51.828;6.466;2022-09-09T13:17:15;2.95;;;1.30;;
20375;SDS011;10347;51.828;6.466;2022-09-09T13:19:45;3.00;;;1.23;;
20375;SDS011;10347;51.828;6.466;2022-09-09T13:22:19;4.22;;;1.30;;
20375;SDS011;10347;51.828;6.466;2022-09-09T13:25:03;2.90;;;1.30;;
20375;SDS011;10347;51.828;6.466;2022-09-09T13:27:58;2.22;;;1.33;;
20375;SDS011;10347;51.828;6.466;2022-09-09T13:35:47;2.88;;;1.30;;
20375;SDS011;10347;51.828;6.466;2022-09-09T13:38:24;4.32;;;1.50;;
20375;SDS011;10347;51.828;6.466;2022-09-09T13:41:00;9.52;;;1.77;;
20375;SDS011;10347;51.828;6.466;2022-09-09T13:43:29;3.67;;;1.65;;
20375;SDS011;10347;51.828;6.466;2022-09-09T13:51:37;3.15;;;1.30;;
20375;SDS011;10347;51.828;6.466;2022-09-09T13:54:03;2.90;;;1.25;;
20375;SDS011;10347;51.828;6.466;2022-09-09T13:56:31;4.07;;;1.58;;
20375;SDS011;10347;51.828;6.466;2022-09-09T13:59:01;2.85;;;1.38;;
20375;SDS011;10347;51.828;6.466;2022-09-09T14:01:28;2.80;;;1.10;;
20375;SDS011;10347;51.828;6.466;2022-09-09T14:03:54;1.55;;;1.20;;
20375;SDS011;10347;51.828;6.466;2022-09-09T14:06:20;4.15;;;1.63;;
20375;SDS011;10347;51.828;6.466;2022-09-09T14:08:49;3.58;;;1.40;;
20375;SDS011;10347;51.828;6.466;2022-09-09T14:11:15;3.45;;;1.50;;
20375;SDS011;10347;51.828;6.466;2022-09-09T14:13:42;1.92;;;1.50;;
20375;SDS011;10347;51.828;6.466;2022-09-09T14:16:07;4.63;;;1.80;;
20375;SDS011;10347;51.828;6.466;2022-09-09T14:18:33;3.25;;;1.40;;
20375;SDS011;10347;51.828;6.466;2022-09-09T14:20:59;3.40;;;1.42;;
20375;SDS011;10347;51.828;6.466;2022-09-09T14:23:24;4.63;;;1.73;;
20375;SDS011;10347;51.828;6.466;2022-09-09T14:25:50;4.40;;;1.60;;
20375;SDS011;10347;51.828;6.466;2022-09-09T14:28:16;2.45;;;1.20;;
20375;SDS011;10347;51.828;6.466;2022-09-09T14:30:43;3.45;;;1.50;;
20375;SDS011;10347;51.828;6.466;2022-09-09T14:33:13;4.43;;;1.58;;
20375;SDS011;10347;51.828;6.466;2022-09-09T14:35:40;3.28;;;1.30;;
20375;SDS011;10347;51.828;6.466;2022-09-09T14:38:07;3.03;;;1.10;;
20375;SDS011;10347;51.828;6.466;2022-09-09T14:40:33;1.05;;;0.85;;
20375;SDS011;10347;51.828;6.466;2022-09-09T14:43:00;3.80;;;1.33;;
20375;SDS011;10347;51.828;6.466;2022-09-09T14:45:26;3.20;;;1.20;;
20375;SDS011;10347;51.828;6.466;2022-09-09T14:47:52;2.70;;;1.10;;
20375;SDS011;10347;51.828;6.466;2022-09-09T14:50:18;2.03;;;1.00;;
20375;SDS011;10347;51.828;6.466;2022-09-09T14:52:44;2.58;;;1.20;;
20375;SDS011;10347;51.828;6.466;2022-09-09T14:55:11;3.35;;;1.25;;
20375;SDS011;10347;51.828;6.466;2022-09-09T14:57:36;1.52;;;0.88;;
20375;SDS011;10347;51.828;6.466;2022-09-09T15:00:04;1.85;;;0.90;;
20375;SDS011;10347;51.828;6.466;2022-09-09T15:02:30;1.60;;;1.00;;
20375;SDS011;10347;51.828;6.466;2022-09-09T15:04:56;3.72;;;0.88;;
20375;SDS011;10347;51.828;6.466;2022-09-09T15:07:23;3.42;;;1.20;;
20375;SDS011;10347;51.828;6.466;2022-09-09T15:09:49;1.92;;;0.98;;
20375;SDS011;10347;51.828;6.466;2022-09-09T15:12:15;1.83;;;1.13;;
20375;SDS011;10347;51.828;6.466;2022-09-09T15:14:43;2.45;;;0.85;;
20375;SDS011;10347;51.828;6.466;2022-09-09T15:17:09;0.90;;;0.90;;
20375;SDS011;10347;51.828;6.466;2022-09-09T15:19:35;2.10;;;1.00;;
20375;SDS011;10347;51.828;6.466;2022-09-09T15:22:01;2.30;;;1.10;;
20375;SDS011;10347;51.828;6.466;2022-09-09T15:24:28;1.58;;;1.00;;
20375;SDS011;10347;51.828;6.466;2022-09-09T15:26:53;1.95;;;0.88;;
20375;SDS011;10347;51.828;6.466;2022-09-09T15:29:19;1.05;;;0.80;;
20375;SDS011;10347;51.828;6.466;2022-09-09T15:31:45;2.70;;;1.08;;
20375;SDS011;10347;51.828;6.466;2022-09-09T15:34:11;1.77;;;0.95;;
20375;SDS011;10347;51.828;6.466;2022-09-09T15:36:44;2.78;;;1.17;;
20375;SDS011;10347;51.828;6.466;2022-09-09T15:39:14;2.70;;;1.10;;
20375;SDS011;10347;51.828;6.466;2022-09-09T15:41:42;2.78;;;1.10;;
20375;SDS011;10347;51.828;6.466;2022-09-09T15:44:09;2.25;;;1.00;;
20375;SDS011;10347;51.828;6.466;2022-09-09T15:46:40;2.08;;;0.93;;
20375;SDS011;10347;51.828;6.466;2022-09-09T15:49:13;1.88;;;0.80;;
20375;SDS011;10347;51.828;6.466;2022-09-09T15:51:45;1.73;;;0.95;;
20375;SDS011;10347;51.828;6.466;2022-09-09T15:54:16;3.28;;;0.90;;
20375;SDS011;10347;51.828;6.466;2022-09-09T15:56:43;1.05;;;0.77;;
20375;SDS011;10347;51.828;6.466;2022-09-09T15:59:10;3.85;;;1.10;;
20375;SDS011;10347;51.828;6.466;2022-09-09T16:01:36;4.43;;;1.15;;
20375;SDS011;10347;51.828;6.466;2022-09-09T16:04:02;3.55;;;1.00;;
20375;SDS011;10347;51.828;6.466;2022-09-09T16:06:29;1.58;;;0.90;;
20375;SDS011;10347;51.828;6.466;2022-09-09T16:08:55;1.95;;;1.30;;
20375;SDS011;10347;51.828;6.466;2022-09-09T16:11:26;1.65;;;0.82;;
20375;SDS011;10347;51.828;6.466;2022-09-09T16:13:53;2.17;;;0.90;;
20375;SDS011;10347;51.828;6.466;2022-09-09T16:16:20;0.98;;;0.80;;
20375;SDS011;10347;51.828;6.466;2022-09-09T16:18:57;1.65;;;1.10;;
20375;SDS011;10347;51.828;6.466;2022-09-09T16:21:25;2.00;;;1.10;;
20375;SDS011;10347;51.828;6.466;2022-09-09T16:23:54;1.75;;;1.00;;
20375;SDS011;10347;51.828;6.466;2022-09-09T16:26:20;1.33;;;0.90;;
20375;SDS011;10347;51.828;6.466;2022-09-09T16:28:47;2.33;;;1.10;;
20375;SDS011;10347;51.828;6.466;2022-09-09T16:31:17;2.85;;;1.10;;
20375;SDS011;10347;51.828;6.466;2022-09-09T16:33:45;2.00;;;1.15;;
20375;SDS011;10347;51.828;6.466;2022-09-09T16:36:15;2.17;;;1.48;;
20375;SDS011;10347;51.828;6.466;2022-09-09T16:38:42;2.28;;;1.33;;
20375;SDS011;10347;51.828;6.466;2022-09-09T16:41:08;1.88;;;1.35;;
20375;SDS011;10347;51.828;6.466;2022-09-09T16:43:35;3.67;;;1.30;;
20375;SDS011;10347;51.828;6.466;2022-09-09T16:46:02;1.52;;;1.15;;
20375;SDS011;10347;51.828;6.466;2022-09-09T16:48:32;2.55;;;1.27;;
20375;SDS011;10347;51.828;6.466;2022-09-09T16:51:18;2.80;;;1.17;;
20375;SDS011;10347;51.828;6.466;2022-09-09T16:53:45;4.72;;;1.60;;
20375;SDS011;10347;51.828;6.466;2022-09-09T16:56:12;2.25;;;1.40;;
20375;SDS011;10347;51.828;6.466;2022-09-09T16:58:40;2.80;;;1.40;;
20375;SDS011;10347;51.828;6.466;2022-09-09T17:01:08;2.83;;;1.30;;
20375;SDS011;10347;51.828;6.466;2022-09-09T17:03:36;1.00;;;0.90;;
20375;SDS011;10347;51.828;6.466;2022-09-09T17:06:02;1.55;;;1.00;;
20375;SDS011;10347;51.828;6.466;2022-09-09T17:08:31;1.17;;;1.10;;
20375;SDS011;10347;51.828;6.466;2022-09-09T17:10:58;1.00;;;0.90;;
20375;SDS011;10347;51.828;6.466;2022-09-09T17:13:24;3.90;;;1.77;;
20375;SDS011;10347;51.828;6.466;2022-09-09T17:15:50;3.33;;;1.08;;
20375;SDS011;10347;51.828;6.466;2022-09-09T17:18:16;0.68;;;0.60;;